Главная страница
METAR-TAF:

METAR-TAF

Аэропорты :

Международный аэропорт Фуаамоту

Тонгатапу, Тонга

широта: 21-14S, долгота: 175-09W, высота над уровнем моря: 38 м

Текущие метеонаблюдения

Эта сводка был подготовлена 14 минут назад, в 11:40 UTC
Штиль
Температура 22°C
Влажность 94%
Давление 1013 hPa
Видимость: 0300 м
ясное небо
туман

METAR: NFTF 211140Z 00000KT 0300 FG SKC 22/21 Q1013

Время: 00:54 (11:54 UTC)

Прогноз

Эта сводка был подготовлена 35 минут назад, в 11:19 UTC
Прогноз действительный с 21-го 12 UTC до 22-го 12 UTC
Ветер 3 Узел переменных направлений
Видимость: 0300 м
туман
С 1900 UTC
Ветер 5 Узел от южный-юго-западный
Видимость: 3000 м
дымка
С 2000 UTC
Ветер 8 Узел от южный-юго-западный
Видимость 10 км и более
небольшая облачность на высоте 1800 фута

TAF: NFTF 211119Z 2112/2212 VRB03KT 0300 FG FM1900 20005KT 3000 BR FM2000 20008KT 9999 FEW018

Метеонаблюдения и прогнозы для более 4000 аэропортов (сводки METAR и TAF).

Имеющиеся станции представлены на карте желтыми и красными точками.

Чтобы увидеть название станции, наведите на нее мышь.

Затем щелкните, чтобы увидеть метеонаблюдения и метеопрогнозы.

Управление картой: чтобы увеличить масштаб, щелкните зеленые кнопки с черным крестиком; чтобы уменьшить масштаб, щелкните зеленую кнопку с тире; для просмотра соседних карт щелкайте зеленые стрелки.


METAR-TAF: